<?xml version="1.0" encoding="UTF-8" standalone="no" ?>
<gpx xmlns="http://www.topografix.com/GPX/1/1" xmlns:xsi="http://www.w3.org/2001/XMLSchema-instance" xsi:schemaLocation="http://www.topografix.com/GPX/1/1 http://www.topografix.com/GPX/1/1/gpx.xsd" version="1.1" creator="VisuGPX - https://www.visugpx.com">
  <metadata>
    <name>Saint Gengoux le National - Cluny</name>
    <desc><![CDATA[Chemin de Compostelle]]></desc>
  </metadata>
  <trk>
    <name><![CDATA[4 - Saint-gengoux Le National - Cluny on GPSies.com]]></name>
    <trkseg>
      <trkpt lat="46.61353" lon="4.66257">
        <ele>231.6</ele>
        <time>2010-01-01T00:00:00Z</time>
      </trkpt>
      <trkpt lat="46.61192" lon="4.6625">
        <ele>226.9</ele>
        <time>2010-01-01T00:01:04Z</time>
      </trkpt>
      <trkpt lat="46.61129" lon="4.6626">
        <ele>225.8</ele>
        <time>2010-01-01T00:01:30Z</time>
      </trkpt>
      <trkpt lat="46.61067" lon="4.66273">
        <ele>224.7</ele>
        <time>2010-01-01T00:01:54Z</time>
      </trkpt>
      <trkpt lat="46.60996" lon="4.66306">
        <ele>224.7</ele>
        <time>2010-01-01T00:02:24Z</time>
      </trkpt>
      <trkpt lat="46.60936" lon="4.66356">
        <ele>224.5</ele>
        <time>2010-01-01T00:02:52Z</time>
      </trkpt>
      <trkpt lat="46.60919" lon="4.66344">
        <ele>223.5</ele>
        <time>2010-01-01T00:02:59Z</time>
      </trkpt>
      <trkpt lat="46.60735" lon="4.6643">
        <ele>222.5</ele>
        <time>2010-01-01T00:04:17Z</time>
      </trkpt>
      <trkpt lat="46.607" lon="4.66466">
        <ele>222</ele>
        <time>2010-01-01T00:04:34Z</time>
      </trkpt>
      <trkpt lat="46.60678" lon="4.66493">
        <ele>222.3</ele>
        <time>2010-01-01T00:04:45Z</time>
      </trkpt>
      <trkpt lat="46.60647" lon="4.66498">
        <ele>221.9</ele>
        <time>2010-01-01T00:04:58Z</time>
      </trkpt>
      <trkpt lat="46.60612" lon="4.66481">
        <ele>221.6</ele>
        <time>2010-01-01T00:05:12Z</time>
      </trkpt>
      <trkpt lat="46.60588" lon="4.66474">
        <ele>221.1</ele>
        <time>2010-01-01T00:05:22Z</time>
      </trkpt>
      <trkpt lat="46.60569" lon="4.66487">
        <ele>221</ele>
        <time>2010-01-01T00:05:31Z</time>
      </trkpt>
      <trkpt lat="46.60558" lon="4.66506">
        <ele>220.7</ele>
        <time>2010-01-01T00:05:37Z</time>
      </trkpt>
      <trkpt lat="46.60443" lon="4.66433">
        <ele>217.6</ele>
        <time>2010-01-01T00:06:28Z</time>
      </trkpt>
      <trkpt lat="46.60392" lon="4.66434">
        <ele>217.3</ele>
        <time>2010-01-01T00:06:48Z</time>
      </trkpt>
      <trkpt lat="46.60334" lon="4.66451">
        <ele>216</ele>
        <time>2010-01-01T00:07:12Z</time>
      </trkpt>
      <trkpt lat="46.60317" lon="4.66457">
        <ele>215.7</ele>
        <time>2010-01-01T00:07:19Z</time>
      </trkpt>
      <trkpt lat="46.60274" lon="4.66312">
        <ele>211.9</ele>
        <time>2010-01-01T00:08:02Z</time>
      </trkpt>
      <trkpt lat="46.60228" lon="4.66241">
        <ele>212.3</ele>
        <time>2010-01-01T00:08:29Z</time>
      </trkpt>
      <trkpt lat="46.60196" lon="4.66213">
        <ele>215.5</ele>
        <time>2010-01-01T00:08:44Z</time>
      </trkpt>
      <trkpt lat="46.6015" lon="4.66231">
        <ele>216.6</ele>
        <time>2010-01-01T00:09:03Z</time>
      </trkpt>
      <trkpt lat="46.60081" lon="4.6628">
        <ele>216</ele>
        <time>2010-01-01T00:09:33Z</time>
      </trkpt>
      <trkpt lat="46.59998" lon="4.66316">
        <ele>219.8</ele>
        <time>2010-01-01T00:10:08Z</time>
      </trkpt>
      <trkpt lat="46.59924" lon="4.66312">
        <ele>234.6</ele>
        <time>2010-01-01T00:10:38Z</time>
      </trkpt>
      <trkpt lat="46.59834" lon="4.66245">
        <ele>244.6</ele>
        <time>2010-01-01T00:11:18Z</time>
      </trkpt>
      <trkpt lat="46.59774" lon="4.6621">
        <ele>245.1</ele>
        <time>2010-01-01T00:11:44Z</time>
      </trkpt>
      <trkpt lat="46.5976" lon="4.66188">
        <ele>246.4</ele>
        <time>2010-01-01T00:11:53Z</time>
      </trkpt>
      <trkpt lat="46.59687" lon="4.66125">
        <ele>246.4</ele>
        <time>2010-01-01T00:12:26Z</time>
      </trkpt>
      <trkpt lat="46.59603" lon="4.66079">
        <ele>242.6</ele>
        <time>2010-01-01T00:13:02Z</time>
      </trkpt>
      <trkpt lat="46.59523" lon="4.65949">
        <ele>240.2</ele>
        <time>2010-01-01T00:13:50Z</time>
      </trkpt>
      <trkpt lat="46.59508" lon="4.65922">
        <ele>239.5</ele>
        <time>2010-01-01T00:14:00Z</time>
      </trkpt>
      <trkpt lat="46.59479" lon="4.65832">
        <ele>241.3</ele>
        <time>2010-01-01T00:14:27Z</time>
      </trkpt>
      <trkpt lat="46.59442" lon="4.65765">
        <ele>242.3</ele>
        <time>2010-01-01T00:14:51Z</time>
      </trkpt>
      <trkpt lat="46.59403" lon="4.65807">
        <ele>239.4</ele>
        <time>2010-01-01T00:15:10Z</time>
      </trkpt>
      <trkpt lat="46.59366" lon="4.65845">
        <ele>237.1</ele>
        <time>2010-01-01T00:15:28Z</time>
      </trkpt>
      <trkpt lat="46.59334" lon="4.65876">
        <ele>235.5</ele>
        <time>2010-01-01T00:15:44Z</time>
      </trkpt>
      <trkpt lat="46.59179" lon="4.65835">
        <ele>230.4</ele>
        <time>2010-01-01T00:16:47Z</time>
      </trkpt>
      <trkpt lat="46.59136" lon="4.65784">
        <ele>229.9</ele>
        <time>2010-01-01T00:17:09Z</time>
      </trkpt>
      <trkpt lat="46.59061" lon="4.65752">
        <ele>227.1</ele>
        <time>2010-01-01T00:17:40Z</time>
      </trkpt>
      <trkpt lat="46.58951" lon="4.65674">
        <ele>219.5</ele>
        <time>2010-01-01T00:18:29Z</time>
      </trkpt>
      <trkpt lat="46.58893" lon="4.65606">
        <ele>215.2</ele>
        <time>2010-01-01T00:18:59Z</time>
      </trkpt>
      <trkpt lat="46.58748" lon="4.65553">
        <ele>209.9</ele>
        <time>2010-01-01T00:19:59Z</time>
      </trkpt>
      <trkpt lat="46.58652" lon="4.65527">
        <ele>211.1</ele>
        <time>2010-01-01T00:20:38Z</time>
      </trkpt>
      <trkpt lat="46.58568" lon="4.65488">
        <ele>217.4</ele>
        <time>2010-01-01T00:21:13Z</time>
      </trkpt>
      <trkpt lat="46.58524" lon="4.65482">
        <ele>220.2</ele>
        <time>2010-01-01T00:21:31Z</time>
      </trkpt>
      <trkpt lat="46.58496" lon="4.65496">
        <ele>220.6</ele>
        <time>2010-01-01T00:21:43Z</time>
      </trkpt>
      <trkpt lat="46.58328" lon="4.65489">
        <ele>240.5</ele>
        <time>2010-01-01T00:22:50Z</time>
      </trkpt>
      <trkpt lat="46.58193" lon="4.65478">
        <ele>249.3</ele>
        <time>2010-01-01T00:23:44Z</time>
      </trkpt>
      <trkpt lat="46.58148" lon="4.65469">
        <ele>250.9</ele>
        <time>2010-01-01T00:24:02Z</time>
      </trkpt>
      <trkpt lat="46.58105" lon="4.65469">
        <ele>251</ele>
        <time>2010-01-01T00:24:20Z</time>
      </trkpt>
      <trkpt lat="46.58084" lon="4.65468">
        <ele>250.3</ele>
        <time>2010-01-01T00:24:28Z</time>
      </trkpt>
      <trkpt lat="46.57984" lon="4.65426">
        <ele>247.8</ele>
        <time>2010-01-01T00:25:10Z</time>
      </trkpt>
      <trkpt lat="46.57937" lon="4.65407">
        <ele>247.8</ele>
        <time>2010-01-01T00:25:29Z</time>
      </trkpt>
      <trkpt lat="46.57907" lon="4.65397">
        <ele>249.2</ele>
        <time>2010-01-01T00:25:41Z</time>
      </trkpt>
      <trkpt lat="46.57819" lon="4.65329">
        <ele>251.7</ele>
        <time>2010-01-01T00:26:22Z</time>
      </trkpt>
      <trkpt lat="46.57803" lon="4.6528">
        <ele>253.7</ele>
        <time>2010-01-01T00:26:37Z</time>
      </trkpt>
      <trkpt lat="46.57783" lon="4.65259">
        <ele>254</ele>
        <time>2010-01-01T00:26:46Z</time>
      </trkpt>
      <trkpt lat="46.57722" lon="4.65242">
        <ele>254</ele>
        <time>2010-01-01T00:27:11Z</time>
      </trkpt>
      <trkpt lat="46.57663" lon="4.65231">
        <ele>256.1</ele>
        <time>2010-01-01T00:27:35Z</time>
      </trkpt>
      <trkpt lat="46.57636" lon="4.65225">
        <ele>257.2</ele>
        <time>2010-01-01T00:27:46Z</time>
      </trkpt>
      <trkpt lat="46.5754" lon="4.65082">
        <ele>264.5</ele>
        <time>2010-01-01T00:28:41Z</time>
      </trkpt>
      <trkpt lat="46.57443" lon="4.64969">
        <ele>265.7</ele>
        <time>2010-01-01T00:29:31Z</time>
      </trkpt>
      <trkpt lat="46.57399" lon="4.64915">
        <ele>264.6</ele>
        <time>2010-01-01T00:29:54Z</time>
      </trkpt>
      <trkpt lat="46.57348" lon="4.6487">
        <ele>267.3</ele>
        <time>2010-01-01T00:30:18Z</time>
      </trkpt>
      <trkpt lat="46.56986" lon="4.64528">
        <ele>280.6</ele>
        <time>2010-01-01T00:33:10Z</time>
      </trkpt>
      <trkpt lat="46.56915" lon="4.64428">
        <ele>282.9</ele>
        <time>2010-01-01T00:33:50Z</time>
      </trkpt>
      <trkpt lat="46.56895" lon="4.64398">
        <ele>283.1</ele>
        <time>2010-01-01T00:34:01Z</time>
      </trkpt>
      <trkpt lat="46.56841" lon="4.64275">
        <ele>280.2</ele>
        <time>2010-01-01T00:34:42Z</time>
      </trkpt>
      <trkpt lat="46.56836" lon="4.64232">
        <ele>278.6</ele>
        <time>2010-01-01T00:34:54Z</time>
      </trkpt>
      <trkpt lat="46.56785" lon="4.64184">
        <ele>271.9</ele>
        <time>2010-01-01T00:35:18Z</time>
      </trkpt>
      <trkpt lat="46.56701" lon="4.64121">
        <ele>260.7</ele>
        <time>2010-01-01T00:35:56Z</time>
      </trkpt>
      <trkpt lat="46.56648" lon="4.64065">
        <ele>257.9</ele>
        <time>2010-01-01T00:36:22Z</time>
      </trkpt>
      <trkpt lat="46.5659" lon="4.64024">
        <ele>256.4</ele>
        <time>2010-01-01T00:36:48Z</time>
      </trkpt>
      <trkpt lat="46.56538" lon="4.64001">
        <ele>257.9</ele>
        <time>2010-01-01T00:37:10Z</time>
      </trkpt>
      <trkpt lat="46.56064" lon="4.63667">
        <ele>254.3</ele>
        <time>2010-01-01T00:40:41Z</time>
      </trkpt>
      <trkpt lat="46.56013" lon="4.63629">
        <ele>250.9</ele>
        <time>2010-01-01T00:41:03Z</time>
      </trkpt>
      <trkpt lat="46.55959" lon="4.63668">
        <ele>247.1</ele>
        <time>2010-01-01T00:41:27Z</time>
      </trkpt>
      <trkpt lat="46.55923" lon="4.63734">
        <ele>244.3</ele>
        <time>2010-01-01T00:41:51Z</time>
      </trkpt>
      <trkpt lat="46.55893" lon="4.63815">
        <ele>241.3</ele>
        <time>2010-01-01T00:42:16Z</time>
      </trkpt>
      <trkpt lat="46.55798" lon="4.63968">
        <ele>234.7</ele>
        <time>2010-01-01T00:43:13Z</time>
      </trkpt>
      <trkpt lat="46.55704" lon="4.64057">
        <ele>232</ele>
        <time>2010-01-01T00:43:58Z</time>
      </trkpt>
      <trkpt lat="46.55573" lon="4.64162">
        <ele>232.8</ele>
        <time>2010-01-01T00:44:58Z</time>
      </trkpt>
      <trkpt lat="46.55415" lon="4.64267">
        <ele>234.4</ele>
        <time>2010-01-01T00:46:07Z</time>
      </trkpt>
      <trkpt lat="46.5539" lon="4.64301">
        <ele>234.2</ele>
        <time>2010-01-01T00:46:21Z</time>
      </trkpt>
      <trkpt lat="46.55352" lon="4.64275">
        <ele>235.9</ele>
        <time>2010-01-01T00:46:37Z</time>
      </trkpt>
      <trkpt lat="46.55312" lon="4.64319">
        <ele>237.4</ele>
        <time>2010-01-01T00:46:58Z</time>
      </trkpt>
      <trkpt lat="46.55288" lon="4.64349">
        <ele>237.4</ele>
        <time>2010-01-01T00:47:10Z</time>
      </trkpt>
      <trkpt lat="46.55247" lon="4.64349">
        <ele>235.8</ele>
        <time>2010-01-01T00:47:27Z</time>
      </trkpt>
      <trkpt lat="46.55199" lon="4.64407">
        <ele>232.2</ele>
        <time>2010-01-01T00:47:52Z</time>
      </trkpt>
      <trkpt lat="46.55083" lon="4.64497">
        <ele>222.1</ele>
        <time>2010-01-01T00:48:44Z</time>
      </trkpt>
      <trkpt lat="46.55034" lon="4.64554">
        <ele>219.2</ele>
        <time>2010-01-01T00:49:09Z</time>
      </trkpt>
      <trkpt lat="46.55009" lon="4.64577">
        <ele>218.1</ele>
        <time>2010-01-01T00:49:21Z</time>
      </trkpt>
      <trkpt lat="46.54956" lon="4.64609">
        <ele>216.4</ele>
        <time>2010-01-01T00:49:44Z</time>
      </trkpt>
      <trkpt lat="46.54886" lon="4.6452">
        <ele>213.7</ele>
        <time>2010-01-01T00:50:22Z</time>
      </trkpt>
      <trkpt lat="46.54738" lon="4.64512">
        <ele>212.7</ele>
        <time>2010-01-01T00:51:21Z</time>
      </trkpt>
      <trkpt lat="46.54705" lon="4.64499">
        <ele>211.9</ele>
        <time>2010-01-01T00:51:35Z</time>
      </trkpt>
      <trkpt lat="46.54676" lon="4.64484">
        <ele>210.8</ele>
        <time>2010-01-01T00:51:47Z</time>
      </trkpt>
      <trkpt lat="46.54623" lon="4.64404">
        <ele>209.7</ele>
        <time>2010-01-01T00:52:18Z</time>
      </trkpt>
      <trkpt lat="46.54596" lon="4.64375">
        <ele>209.5</ele>
        <time>2010-01-01T00:52:31Z</time>
      </trkpt>
      <trkpt lat="46.54524" lon="4.64322">
        <ele>208.3</ele>
        <time>2010-01-01T00:53:03Z</time>
      </trkpt>
      <trkpt lat="46.54488" lon="4.64288">
        <ele>207.9</ele>
        <time>2010-01-01T00:53:20Z</time>
      </trkpt>
      <trkpt lat="46.54442" lon="4.64186">
        <ele>206.6</ele>
        <time>2010-01-01T00:53:54Z</time>
      </trkpt>
      <trkpt lat="46.54392" lon="4.63987">
        <ele>207.4</ele>
        <time>2010-01-01T00:54:52Z</time>
      </trkpt>
      <trkpt lat="46.54374" lon="4.63948">
        <ele>204.9</ele>
        <time>2010-01-01T00:55:05Z</time>
      </trkpt>
      <trkpt lat="46.54355" lon="4.6392">
        <ele>204</ele>
        <time>2010-01-01T00:55:16Z</time>
      </trkpt>
      <trkpt lat="46.54331" lon="4.63903">
        <ele>203.9</ele>
        <time>2010-01-01T00:55:27Z</time>
      </trkpt>
      <trkpt lat="46.54282" lon="4.63879">
        <ele>203</ele>
        <time>2010-01-01T00:55:47Z</time>
      </trkpt>
      <trkpt lat="46.54171" lon="4.63843">
        <ele>203.3</ele>
        <time>2010-01-01T00:56:33Z</time>
      </trkpt>
      <trkpt lat="46.54155" lon="4.63855">
        <ele>202.7</ele>
        <time>2010-01-01T00:56:40Z</time>
      </trkpt>
      <trkpt lat="46.54095" lon="4.63926">
        <ele>203</ele>
        <time>2010-01-01T00:57:11Z</time>
      </trkpt>
      <trkpt lat="46.54051" lon="4.6397">
        <ele>203</ele>
        <time>2010-01-01T00:57:32Z</time>
      </trkpt>
      <trkpt lat="46.5401" lon="4.63994">
        <ele>203</ele>
        <time>2010-01-01T00:57:50Z</time>
      </trkpt>
      <trkpt lat="46.53974" lon="4.64017">
        <ele>203</ele>
        <time>2010-01-01T00:58:06Z</time>
      </trkpt>
      <trkpt lat="46.53932" lon="4.64">
        <ele>204</ele>
        <time>2010-01-01T00:58:23Z</time>
      </trkpt>
      <trkpt lat="46.53804" lon="4.63914">
        <ele>212.1</ele>
        <time>2010-01-01T00:59:19Z</time>
      </trkpt>
      <trkpt lat="46.53733" lon="4.63862">
        <ele>217.2</ele>
        <time>2010-01-01T00:59:51Z</time>
      </trkpt>
      <trkpt lat="46.53667" lon="4.63788">
        <ele>222</ele>
        <time>2010-01-01T01:00:25Z</time>
      </trkpt>
      <trkpt lat="46.5362" lon="4.63755">
        <ele>224.7</ele>
        <time>2010-01-01T01:00:46Z</time>
      </trkpt>
      <trkpt lat="46.53482" lon="4.63968">
        <ele>222</ele>
        <time>2010-01-01T01:02:06Z</time>
      </trkpt>
      <trkpt lat="46.53399" lon="4.64011">
        <ele>220.2</ele>
        <time>2010-01-01T01:02:41Z</time>
      </trkpt>
      <trkpt lat="46.53382" lon="4.64018">
        <ele>220.1</ele>
        <time>2010-01-01T01:02:49Z</time>
      </trkpt>
      <trkpt lat="46.53174" lon="4.64218">
        <ele>222.2</ele>
        <time>2010-01-01T01:04:29Z</time>
      </trkpt>
      <trkpt lat="46.53141" lon="4.6423">
        <ele>224.5</ele>
        <time>2010-01-01T01:04:42Z</time>
      </trkpt>
      <trkpt lat="46.53015" lon="4.64257">
        <ele>232.6</ele>
        <time>2010-01-01T01:05:33Z</time>
      </trkpt>
      <trkpt lat="46.52991" lon="4.64255">
        <ele>233.7</ele>
        <time>2010-01-01T01:05:43Z</time>
      </trkpt>
      <trkpt lat="46.52889" lon="4.64222">
        <ele>236.9</ele>
        <time>2010-01-01T01:06:24Z</time>
      </trkpt>
      <trkpt lat="46.52826" lon="4.64225">
        <ele>239.1</ele>
        <time>2010-01-01T01:06:50Z</time>
      </trkpt>
      <trkpt lat="46.52761" lon="4.64203">
        <ele>239.5</ele>
        <time>2010-01-01T01:07:16Z</time>
      </trkpt>
      <trkpt lat="46.52718" lon="4.64192">
        <ele>242.2</ele>
        <time>2010-01-01T01:07:34Z</time>
      </trkpt>
      <trkpt lat="46.5268" lon="4.64168">
        <ele>245</ele>
        <time>2010-01-01T01:07:50Z</time>
      </trkpt>
      <trkpt lat="46.52659" lon="4.64137">
        <ele>247.2</ele>
        <time>2010-01-01T01:08:03Z</time>
      </trkpt>
      <trkpt lat="46.52638" lon="4.64119">
        <ele>248.1</ele>
        <time>2010-01-01T01:08:12Z</time>
      </trkpt>
      <trkpt lat="46.526" lon="4.641">
        <ele>251</ele>
        <time>2010-01-01T01:08:28Z</time>
      </trkpt>
      <trkpt lat="46.52534" lon="4.64075">
        <ele>255.7</ele>
        <time>2010-01-01T01:08:56Z</time>
      </trkpt>
      <trkpt lat="46.52419" lon="4.64024">
        <ele>259.8</ele>
        <time>2010-01-01T01:09:44Z</time>
      </trkpt>
      <trkpt lat="46.52377" lon="4.64009">
        <ele>261.7</ele>
        <time>2010-01-01T01:10:01Z</time>
      </trkpt>
      <trkpt lat="46.52357" lon="4.64005">
        <ele>262.3</ele>
        <time>2010-01-01T01:10:09Z</time>
      </trkpt>
      <trkpt lat="46.52343" lon="4.64003">
        <ele>262.8</ele>
        <time>2010-01-01T01:10:15Z</time>
      </trkpt>
      <trkpt lat="46.52278" lon="4.64025">
        <ele>266.9</ele>
        <time>2010-01-01T01:10:41Z</time>
      </trkpt>
      <trkpt lat="46.52251" lon="4.6403">
        <ele>268</ele>
        <time>2010-01-01T01:10:52Z</time>
      </trkpt>
      <trkpt lat="46.52153" lon="4.64007">
        <ele>273.6</ele>
        <time>2010-01-01T01:11:32Z</time>
      </trkpt>
      <trkpt lat="46.52069" lon="4.64024">
        <ele>280</ele>
        <time>2010-01-01T01:12:06Z</time>
      </trkpt>
      <trkpt lat="46.52035" lon="4.64028">
        <ele>283.2</ele>
        <time>2010-01-01T01:12:20Z</time>
      </trkpt>
      <trkpt lat="46.52011" lon="4.64024">
        <ele>285.2</ele>
        <time>2010-01-01T01:12:29Z</time>
      </trkpt>
      <trkpt lat="46.51991" lon="4.6401">
        <ele>286.5</ele>
        <time>2010-01-01T01:12:38Z</time>
      </trkpt>
      <trkpt lat="46.51964" lon="4.64001">
        <ele>288.6</ele>
        <time>2010-01-01T01:12:49Z</time>
      </trkpt>
      <trkpt lat="46.51945" lon="4.63999">
        <ele>289.9</ele>
        <time>2010-01-01T01:12:57Z</time>
      </trkpt>
      <trkpt lat="46.51839" lon="4.63939">
        <ele>296.6</ele>
        <time>2010-01-01T01:13:43Z</time>
      </trkpt>
      <trkpt lat="46.51757" lon="4.63912">
        <ele>301</ele>
        <time>2010-01-01T01:14:16Z</time>
      </trkpt>
      <trkpt lat="46.51727" lon="4.63901">
        <ele>301.7</ele>
        <time>2010-01-01T01:14:29Z</time>
      </trkpt>
      <trkpt lat="46.51585" lon="4.63895">
        <ele>302.9</ele>
        <time>2010-01-01T01:15:25Z</time>
      </trkpt>
      <trkpt lat="46.51507" lon="4.63897">
        <ele>301.7</ele>
        <time>2010-01-01T01:15:57Z</time>
      </trkpt>
      <trkpt lat="46.51445" lon="4.63919">
        <ele>298.8</ele>
        <time>2010-01-01T01:16:22Z</time>
      </trkpt>
      <trkpt lat="46.51404" lon="4.63931">
        <ele>296.5</ele>
        <time>2010-01-01T01:16:39Z</time>
      </trkpt>
      <trkpt lat="46.51371" lon="4.63926">
        <ele>295.2</ele>
        <time>2010-01-01T01:16:52Z</time>
      </trkpt>
      <trkpt lat="46.51352" lon="4.63928">
        <ele>294.1</ele>
        <time>2010-01-01T01:17:00Z</time>
      </trkpt>
      <trkpt lat="46.51319" lon="4.63932">
        <ele>292.1</ele>
        <time>2010-01-01T01:17:13Z</time>
      </trkpt>
      <trkpt lat="46.51272" lon="4.63951">
        <ele>288.5</ele>
        <time>2010-01-01T01:17:33Z</time>
      </trkpt>
      <trkpt lat="46.51174" lon="4.63984">
        <ele>282.1</ele>
        <time>2010-01-01T01:18:13Z</time>
      </trkpt>
      <trkpt lat="46.51157" lon="4.63984">
        <ele>281.2</ele>
        <time>2010-01-01T01:18:20Z</time>
      </trkpt>
      <trkpt lat="46.51099" lon="4.63996">
        <ele>278.7</ele>
        <time>2010-01-01T01:18:43Z</time>
      </trkpt>
      <trkpt lat="46.51055" lon="4.63982">
        <ele>277</ele>
        <time>2010-01-01T01:19:01Z</time>
      </trkpt>
      <trkpt lat="46.50989" lon="4.63977">
        <ele>274.6</ele>
        <time>2010-01-01T01:19:27Z</time>
      </trkpt>
      <trkpt lat="46.50931" lon="4.64">
        <ele>272.5</ele>
        <time>2010-01-01T01:19:52Z</time>
      </trkpt>
      <trkpt lat="46.50842" lon="4.64055">
        <ele>266.4</ele>
        <time>2010-01-01T01:20:30Z</time>
      </trkpt>
      <trkpt lat="46.5068" lon="4.64097">
        <ele>257.5</ele>
        <time>2010-01-01T01:21:36Z</time>
      </trkpt>
      <trkpt lat="46.50471" lon="4.6413">
        <ele>257.7</ele>
        <time>2010-01-01T01:23:00Z</time>
      </trkpt>
      <trkpt lat="46.50411" lon="4.64147">
        <ele>260.3</ele>
        <time>2010-01-01T01:23:25Z</time>
      </trkpt>
      <trkpt lat="46.50314" lon="4.64158">
        <ele>266.2</ele>
        <time>2010-01-01T01:24:04Z</time>
      </trkpt>
      <trkpt lat="46.50295" lon="4.64166">
        <ele>267</ele>
        <time>2010-01-01T01:24:12Z</time>
      </trkpt>
      <trkpt lat="46.50266" lon="4.64186">
        <ele>267</ele>
        <time>2010-01-01T01:24:25Z</time>
      </trkpt>
      <trkpt lat="46.5025" lon="4.64195">
        <ele>267</ele>
        <time>2010-01-01T01:24:31Z</time>
      </trkpt>
      <trkpt lat="46.50211" lon="4.64185">
        <ele>266</ele>
        <time>2010-01-01T01:24:47Z</time>
      </trkpt>
      <trkpt lat="46.5018" lon="4.64156">
        <ele>263.7</ele>
        <time>2010-01-01T01:25:02Z</time>
      </trkpt>
      <trkpt lat="46.50058" lon="4.64103">
        <ele>266.2</ele>
        <time>2010-01-01T01:25:53Z</time>
      </trkpt>
      <trkpt lat="46.50019" lon="4.64068">
        <ele>267.2</ele>
        <time>2010-01-01T01:26:11Z</time>
      </trkpt>
      <trkpt lat="46.50023" lon="4.64283">
        <ele>283</ele>
        <time>2010-01-01T01:27:10Z</time>
      </trkpt>
      <trkpt lat="46.49907" lon="4.64283">
        <ele>298.3</ele>
        <time>2010-01-01T01:27:57Z</time>
      </trkpt>
      <trkpt lat="46.49863" lon="4.64267">
        <ele>301.6</ele>
        <time>2010-01-01T01:28:14Z</time>
      </trkpt>
      <trkpt lat="46.49762" lon="4.64253">
        <ele>311</ele>
        <time>2010-01-01T01:28:55Z</time>
      </trkpt>
      <trkpt lat="46.49719" lon="4.64252">
        <ele>315.5</ele>
        <time>2010-01-01T01:29:12Z</time>
      </trkpt>
      <trkpt lat="46.49528" lon="4.64259">
        <ele>334</ele>
        <time>2010-01-01T01:30:29Z</time>
      </trkpt>
      <trkpt lat="46.49421" lon="4.64267">
        <ele>343.6</ele>
        <time>2010-01-01T01:31:12Z</time>
      </trkpt>
      <trkpt lat="46.49275" lon="4.64322">
        <ele>354.8</ele>
        <time>2010-01-01T01:32:12Z</time>
      </trkpt>
      <trkpt lat="46.49169" lon="4.64357">
        <ele>356.6</ele>
        <time>2010-01-01T01:32:56Z</time>
      </trkpt>
      <trkpt lat="46.49089" lon="4.64402">
        <ele>356.3</ele>
        <time>2010-01-01T01:33:30Z</time>
      </trkpt>
      <trkpt lat="46.49049" lon="4.64419">
        <ele>354.6</ele>
        <time>2010-01-01T01:33:47Z</time>
      </trkpt>
      <trkpt lat="46.48965" lon="4.64434">
        <ele>351.9</ele>
        <time>2010-01-01T01:34:21Z</time>
      </trkpt>
      <trkpt lat="46.48853" lon="4.64436">
        <ele>355.4</ele>
        <time>2010-01-01T01:35:06Z</time>
      </trkpt>
      <trkpt lat="46.48835" lon="4.64418">
        <ele>354</ele>
        <time>2010-01-01T01:35:14Z</time>
      </trkpt>
      <trkpt lat="46.48747" lon="4.64439">
        <ele>357.4</ele>
        <time>2010-01-01T01:35:50Z</time>
      </trkpt>
      <trkpt lat="46.48712" lon="4.64459">
        <ele>358.9</ele>
        <time>2010-01-01T01:36:05Z</time>
      </trkpt>
      <trkpt lat="46.48694" lon="4.64457">
        <ele>358.4</ele>
        <time>2010-01-01T01:36:12Z</time>
      </trkpt>
      <trkpt lat="46.48638" lon="4.64491">
        <ele>361</ele>
        <time>2010-01-01T01:36:37Z</time>
      </trkpt>
      <trkpt lat="46.48563" lon="4.6449">
        <ele>362</ele>
        <time>2010-01-01T01:37:07Z</time>
      </trkpt>
      <trkpt lat="46.48527" lon="4.64507">
        <ele>364.5</ele>
        <time>2010-01-01T01:37:22Z</time>
      </trkpt>
      <trkpt lat="46.48387" lon="4.64521">
        <ele>366.5</ele>
        <time>2010-01-01T01:38:18Z</time>
      </trkpt>
      <trkpt lat="46.48314" lon="4.64546">
        <ele>367.1</ele>
        <time>2010-01-01T01:38:48Z</time>
      </trkpt>
      <trkpt lat="46.48244" lon="4.64589">
        <ele>367</ele>
        <time>2010-01-01T01:39:19Z</time>
      </trkpt>
      <trkpt lat="46.4812" lon="4.64625">
        <ele>368.3</ele>
        <time>2010-01-01T01:40:09Z</time>
      </trkpt>
      <trkpt lat="46.48044" lon="4.64655">
        <ele>369.9</ele>
        <time>2010-01-01T01:40:40Z</time>
      </trkpt>
      <trkpt lat="46.47935" lon="4.64716">
        <ele>370.7</ele>
        <time>2010-01-01T01:41:27Z</time>
      </trkpt>
      <trkpt lat="46.47889" lon="4.64752">
        <ele>368.9</ele>
        <time>2010-01-01T01:41:48Z</time>
      </trkpt>
      <trkpt lat="46.47865" lon="4.64773">
        <ele>367.3</ele>
        <time>2010-01-01T01:42:00Z</time>
      </trkpt>
      <trkpt lat="46.47814" lon="4.6478">
        <ele>363.9</ele>
        <time>2010-01-01T01:42:20Z</time>
      </trkpt>
      <trkpt lat="46.47793" lon="4.64825">
        <ele>361.8</ele>
        <time>2010-01-01T01:42:35Z</time>
      </trkpt>
      <trkpt lat="46.4777" lon="4.64875">
        <ele>357.9</ele>
        <time>2010-01-01T01:42:52Z</time>
      </trkpt>
      <trkpt lat="46.4775" lon="4.64964">
        <ele>351.6</ele>
        <time>2010-01-01T01:43:17Z</time>
      </trkpt>
      <trkpt lat="46.47743" lon="4.64986">
        <ele>349.7</ele>
        <time>2010-01-01T01:43:24Z</time>
      </trkpt>
      <trkpt lat="46.47707" lon="4.64988">
        <ele>345.5</ele>
        <time>2010-01-01T01:43:38Z</time>
      </trkpt>
      <trkpt lat="46.47617" lon="4.65029">
        <ele>336.3</ele>
        <time>2010-01-01T01:44:16Z</time>
      </trkpt>
      <trkpt lat="46.47581" lon="4.65061">
        <ele>332.6</ele>
        <time>2010-01-01T01:44:33Z</time>
      </trkpt>
      <trkpt lat="46.47554" lon="4.6512">
        <ele>331.2</ele>
        <time>2010-01-01T01:44:53Z</time>
      </trkpt>
      <trkpt lat="46.47526" lon="4.65168">
        <ele>332.1</ele>
        <time>2010-01-01T01:45:10Z</time>
      </trkpt>
      <trkpt lat="46.47399" lon="4.65229">
        <ele>329.5</ele>
        <time>2010-01-01T01:46:04Z</time>
      </trkpt>
      <trkpt lat="46.47404" lon="4.65347">
        <ele>320.9</ele>
        <time>2010-01-01T01:46:36Z</time>
      </trkpt>
      <trkpt lat="46.47384" lon="4.65332">
        <ele>319.2</ele>
        <time>2010-01-01T01:46:45Z</time>
      </trkpt>
      <trkpt lat="46.47352" lon="4.65339">
        <ele>312.8</ele>
        <time>2010-01-01T01:46:58Z</time>
      </trkpt>
      <trkpt lat="46.47323" lon="4.65307">
        <ele>311.3</ele>
        <time>2010-01-01T01:47:13Z</time>
      </trkpt>
      <trkpt lat="46.47291" lon="4.653">
        <ele>307.4</ele>
        <time>2010-01-01T01:47:26Z</time>
      </trkpt>
      <trkpt lat="46.47264" lon="4.65308">
        <ele>303.4</ele>
        <time>2010-01-01T01:47:37Z</time>
      </trkpt>
      <trkpt lat="46.47204" lon="4.65373">
        <ele>298.3</ele>
        <time>2010-01-01T01:48:07Z</time>
      </trkpt>
      <trkpt lat="46.47154" lon="4.65423">
        <ele>300.8</ele>
        <time>2010-01-01T01:48:31Z</time>
      </trkpt>
      <trkpt lat="46.4713" lon="4.65462">
        <ele>302.1</ele>
        <time>2010-01-01T01:48:45Z</time>
      </trkpt>
      <trkpt lat="46.47096" lon="4.65533">
        <ele>302.9</ele>
        <time>2010-01-01T01:49:09Z</time>
      </trkpt>
      <trkpt lat="46.47066" lon="4.65576">
        <ele>304.7</ele>
        <time>2010-01-01T01:49:26Z</time>
      </trkpt>
      <trkpt lat="46.47046" lon="4.6563">
        <ele>306.1</ele>
        <time>2010-01-01T01:49:43Z</time>
      </trkpt>
      <trkpt lat="46.47032" lon="4.65731">
        <ele>301.6</ele>
        <time>2010-01-01T01:50:12Z</time>
      </trkpt>
      <trkpt lat="46.4703" lon="4.65748">
        <ele>300</ele>
        <time>2010-01-01T01:50:16Z</time>
      </trkpt>
      <trkpt lat="46.47007" lon="4.65793">
        <ele>298</ele>
        <time>2010-01-01T01:50:32Z</time>
      </trkpt>
      <trkpt lat="46.46985" lon="4.65823">
        <ele>296.2</ele>
        <time>2010-01-01T01:50:44Z</time>
      </trkpt>
      <trkpt lat="46.46902" lon="4.65877">
        <ele>294.5</ele>
        <time>2010-01-01T01:51:20Z</time>
      </trkpt>
      <trkpt lat="46.4684" lon="4.65923">
        <ele>295.1</ele>
        <time>2010-01-01T01:51:48Z</time>
      </trkpt>
      <trkpt lat="46.46723" lon="4.65997">
        <ele>296.2</ele>
        <time>2010-01-01T01:52:39Z</time>
      </trkpt>
      <trkpt lat="46.46627" lon="4.65998">
        <ele>292.2</ele>
        <time>2010-01-01T01:53:18Z</time>
      </trkpt>
      <trkpt lat="46.46587" lon="4.66001">
        <ele>288.3</ele>
        <time>2010-01-01T01:53:34Z</time>
      </trkpt>
      <trkpt lat="46.4656" lon="4.65988">
        <ele>286</ele>
        <time>2010-01-01T01:53:45Z</time>
      </trkpt>
      <trkpt lat="46.4652" lon="4.65958">
        <ele>280.8</ele>
        <time>2010-01-01T01:54:03Z</time>
      </trkpt>
      <trkpt lat="46.46502" lon="4.66033">
        <ele>277.3</ele>
        <time>2010-01-01T01:54:25Z</time>
      </trkpt>
      <trkpt lat="46.46494" lon="4.66024">
        <ele>275.8</ele>
        <time>2010-01-01T01:54:29Z</time>
      </trkpt>
      <trkpt lat="46.46493" lon="4.65991">
        <ele>276.5</ele>
        <time>2010-01-01T01:54:38Z</time>
      </trkpt>
      <trkpt lat="46.46483" lon="4.65979">
        <ele>275</ele>
        <time>2010-01-01T01:54:43Z</time>
      </trkpt>
      <trkpt lat="46.46446" lon="4.65967">
        <ele>272.2</ele>
        <time>2010-01-01T01:54:58Z</time>
      </trkpt>
      <trkpt lat="46.46407" lon="4.66002">
        <ele>276</ele>
        <time>2010-01-01T01:55:16Z</time>
      </trkpt>
      <trkpt lat="46.46325" lon="4.66017">
        <ele>284.4</ele>
        <time>2010-01-01T01:55:50Z</time>
      </trkpt>
      <trkpt lat="46.46282" lon="4.66019">
        <ele>286.7</ele>
        <time>2010-01-01T01:56:07Z</time>
      </trkpt>
      <trkpt lat="46.46226" lon="4.6601">
        <ele>288.3</ele>
        <time>2010-01-01T01:56:29Z</time>
      </trkpt>
      <trkpt lat="46.46191" lon="4.66009">
        <ele>287.8</ele>
        <time>2010-01-01T01:56:43Z</time>
      </trkpt>
      <trkpt lat="46.46144" lon="4.66022">
        <ele>282.2</ele>
        <time>2010-01-01T01:57:02Z</time>
      </trkpt>
      <trkpt lat="46.46104" lon="4.66041">
        <ele>275.6</ele>
        <time>2010-01-01T01:57:19Z</time>
      </trkpt>
      <trkpt lat="46.46066" lon="4.66067">
        <ele>265.3</ele>
        <time>2010-01-01T01:57:36Z</time>
      </trkpt>
      <trkpt lat="46.46008" lon="4.66058">
        <ele>255.3</ele>
        <time>2010-01-01T01:57:59Z</time>
      </trkpt>
      <trkpt lat="46.45973" lon="4.66054">
        <ele>247.3</ele>
        <time>2010-01-01T01:58:13Z</time>
      </trkpt>
      <trkpt lat="46.45949" lon="4.66069">
        <ele>246</ele>
        <time>2010-01-01T01:58:24Z</time>
      </trkpt>
      <trkpt lat="46.45931" lon="4.66066">
        <ele>249.6</ele>
        <time>2010-01-01T01:58:31Z</time>
      </trkpt>
      <trkpt lat="46.45908" lon="4.66049">
        <ele>257.3</ele>
        <time>2010-01-01T01:58:41Z</time>
      </trkpt>
      <trkpt lat="46.45887" lon="4.66038">
        <ele>267.3</ele>
        <time>2010-01-01T01:58:50Z</time>
      </trkpt>
      <trkpt lat="46.4587" lon="4.66038">
        <ele>271.6</ele>
        <time>2010-01-01T01:58:57Z</time>
      </trkpt>
      <trkpt lat="46.45845" lon="4.66043">
        <ele>275.5</ele>
        <time>2010-01-01T01:59:07Z</time>
      </trkpt>
      <trkpt lat="46.45738" lon="4.66038">
        <ele>284.1</ele>
        <time>2010-01-01T01:59:50Z</time>
      </trkpt>
      <trkpt lat="46.45733" lon="4.65991">
        <ele>285.1</ele>
        <time>2010-01-01T02:00:03Z</time>
      </trkpt>
      <trkpt lat="46.45697" lon="4.66022">
        <ele>288</ele>
        <time>2010-01-01T02:00:20Z</time>
      </trkpt>
      <trkpt lat="46.45643" lon="4.66055">
        <ele>288</ele>
        <time>2010-01-01T02:00:43Z</time>
      </trkpt>
      <trkpt lat="46.45625" lon="4.66066">
        <ele>288.1</ele>
        <time>2010-01-01T02:00:51Z</time>
      </trkpt>
      <trkpt lat="46.45574" lon="4.66062">
        <ele>287.2</ele>
        <time>2010-01-01T02:01:12Z</time>
      </trkpt>
      <trkpt lat="46.45494" lon="4.66082">
        <ele>280.6</ele>
        <time>2010-01-01T02:01:44Z</time>
      </trkpt>
      <trkpt lat="46.45451" lon="4.66105">
        <ele>276.7</ele>
        <time>2010-01-01T02:02:03Z</time>
      </trkpt>
      <trkpt lat="46.454" lon="4.66139">
        <ele>272.8</ele>
        <time>2010-01-01T02:02:25Z</time>
      </trkpt>
      <trkpt lat="46.45339" lon="4.66203">
        <ele>267</ele>
        <time>2010-01-01T02:02:55Z</time>
      </trkpt>
      <trkpt lat="46.45322" lon="4.66217">
        <ele>266.1</ele>
        <time>2010-01-01T02:03:03Z</time>
      </trkpt>
      <trkpt lat="46.45284" lon="4.66246">
        <ele>264.8</ele>
        <time>2010-01-01T02:03:20Z</time>
      </trkpt>
      <trkpt lat="46.45223" lon="4.66273">
        <ele>267</ele>
        <time>2010-01-01T02:03:45Z</time>
      </trkpt>
      <trkpt lat="46.45194" lon="4.66287">
        <ele>270.7</ele>
        <time>2010-01-01T02:03:58Z</time>
      </trkpt>
      <trkpt lat="46.4513" lon="4.66374">
        <ele>279.8</ele>
        <time>2010-01-01T02:04:33Z</time>
      </trkpt>
      <trkpt lat="46.45084" lon="4.6639">
        <ele>282.9</ele>
        <time>2010-01-01T02:04:52Z</time>
      </trkpt>
      <trkpt lat="46.45024" lon="4.66428">
        <ele>282.9</ele>
        <time>2010-01-01T02:05:18Z</time>
      </trkpt>
      <trkpt lat="46.44999" lon="4.66439">
        <ele>282.5</ele>
        <time>2010-01-01T02:05:29Z</time>
      </trkpt>
      <trkpt lat="46.44956" lon="4.66412">
        <ele>283.8</ele>
        <time>2010-01-01T02:05:47Z</time>
      </trkpt>
      <trkpt lat="46.44883" lon="4.66387">
        <ele>281.3</ele>
        <time>2010-01-01T02:06:17Z</time>
      </trkpt>
      <trkpt lat="46.44834" lon="4.66381">
        <ele>274.5</ele>
        <time>2010-01-01T02:06:37Z</time>
      </trkpt>
      <trkpt lat="46.44766" lon="4.66357">
        <ele>267</ele>
        <time>2010-01-01T02:07:05Z</time>
      </trkpt>
      <trkpt lat="46.44699" lon="4.66348">
        <ele>262.7</ele>
        <time>2010-01-01T02:07:32Z</time>
      </trkpt>
      <trkpt lat="46.44663" lon="4.66311">
        <ele>258.5</ele>
        <time>2010-01-01T02:07:50Z</time>
      </trkpt>
      <trkpt lat="46.44601" lon="4.66279">
        <ele>252.3</ele>
        <time>2010-01-01T02:08:16Z</time>
      </trkpt>
      <trkpt lat="46.44545" lon="4.66236">
        <ele>245.2</ele>
        <time>2010-01-01T02:08:41Z</time>
      </trkpt>
      <trkpt lat="46.44467" lon="4.66171">
        <ele>238.3</ele>
        <time>2010-01-01T02:09:17Z</time>
      </trkpt>
      <trkpt lat="46.4445" lon="4.66147">
        <ele>237.2</ele>
        <time>2010-01-01T02:09:27Z</time>
      </trkpt>
      <trkpt lat="46.44338" lon="4.66038">
        <ele>235.5</ele>
        <time>2010-01-01T02:10:21Z</time>
      </trkpt>
      <trkpt lat="46.44225" lon="4.6587">
        <ele>248.6</ele>
        <time>2010-01-01T02:11:26Z</time>
      </trkpt>
      <trkpt lat="46.44081" lon="4.65796">
        <ele>247.4</ele>
        <time>2010-01-01T02:12:27Z</time>
      </trkpt>
      <trkpt lat="46.4404" lon="4.6578">
        <ele>248.8</ele>
        <time>2010-01-01T02:12:44Z</time>
      </trkpt>
      <trkpt lat="46.43983" lon="4.65767">
        <ele>250.8</ele>
        <time>2010-01-01T02:13:07Z</time>
      </trkpt>
      <trkpt lat="46.43935" lon="4.65785">
        <ele>253.6</ele>
        <time>2010-01-01T02:13:27Z</time>
      </trkpt>
      <trkpt lat="46.43902" lon="4.65795">
        <ele>255.2</ele>
        <time>2010-01-01T02:13:40Z</time>
      </trkpt>
      <trkpt lat="46.43767" lon="4.65803">
        <ele>254</ele>
        <time>2010-01-01T02:14:34Z</time>
      </trkpt>
      <trkpt lat="46.4376" lon="4.658">
        <ele>254.2</ele>
        <time>2010-01-01T02:14:37Z</time>
      </trkpt>
      <trkpt lat="46.43708" lon="4.65793">
        <ele>253.9</ele>
        <time>2010-01-01T02:14:58Z</time>
      </trkpt>
      <trkpt lat="46.43659" lon="4.65779">
        <ele>253.9</ele>
        <time>2010-01-01T02:15:18Z</time>
      </trkpt>
      <trkpt lat="46.43603" lon="4.65707">
        <ele>254</ele>
        <time>2010-01-01T02:15:48Z</time>
      </trkpt>
      <trkpt lat="46.43558" lon="4.65688">
        <ele>249.3</ele>
        <time>2010-01-01T02:16:07Z</time>
      </trkpt>
      <trkpt lat="46.43534" lon="4.65779">
        <ele>245.4</ele>
        <time>2010-01-01T02:16:34Z</time>
      </trkpt>
    </trkseg>
  </trk>
</gpx>